Saint Cloud, MN (56398)

4:17 AM CDT on July 05, 2015 (GMT -0500)
Southwest St Cloud | | Change Station
CLOSE
Current Station
Personal Weather Station
Location: St Cloud, MN
Elevation: 1080 ft
Nearby Weather Stations

Elev 1080 ft 45.54 °N, 94.19 °W | Updated 15 seconds ago

Clear
Clear
63.5 °F
Feels Like 63.5 °F
N
0.0
Wind Variable Wind from South
Gusts 0.0 mph

Today
High -- | Low -- °F
--% Chance of Precip.
Yesterday
High -- | Low -- °F
Precip. -- in
5:34 AM 9:08 PM
Waning Gibbous, 86% visible
Pressure 29.90 in
Visibility 6.0 miles
Clouds Clear
Dew Point 41 °F
Humidity 43%
Rainfall 10.87 in
Snow Depth Not available.
UV 0 out of 12
Pollen 4.50 out of 12
Air Quality Not available.
Flu Activity Not available.
METAR KSTC 050853Z AUTO 13004KT 6SM BR CLR 17/16 A2989 RMK AO2 SLP125 T01720161 50002 $

More Conditions Fewer Conditions

Pressure 29.90 in
Visibility 6.0 miles
Clouds Clear
Dew Point 41 °F
Humidity 43%
Rainfall 10.87 in
Snow Depth Not available.
UV 0 out of 12
Pollen 4.50 out of 12
Air Quality Not available.
Flu Activity Not available.
METAR KSTC 050853Z AUTO 13004KT 6SM BR CLR 17/16 A2989 RMK AO2 SLP125 T01720161 50002 $

More Conditions Fewer Conditions

10-Day Weather Forecast

×

Almanac

Astronomy

Jul. 05, 2015 Rise Set
Actual Time
Civil Twilight
Nautical Twilight
Astronomical Twilight
Moon
Length of Visible Light
Length of Day
Tomorrow will be .
, % of the Moon is Illuminated

Today's Extremes

State Highs State Lows

Community

WunderPhotos

Upload Photos

1,835,218 photos uploaded!

WunderBlogs® & News

Nearby

Air Quality

  Air Quality AQ Index Pollutant
Not available.

Snow Depth

Station Depth Elevation

Earthquake Activity

City Distance Mag. Time & Date
Minimum magnitude displayed is 2.5.

Coastal Water Temperatures

Place Temperature

Stations

Nearby Weather Stations

Station Location Temp. Windchill Dew Point Humidity Wind Precip. Elev Updated Type